createdAt,value
2019-02-24T00:00:42.416Z,62.60
2019-02-24T00:03:10.933Z,62.68
2019-02-24T00:05:39.456Z,62.78
2019-02-24T00:08:08.007Z,63.20
2019-02-24T00:10:36.521Z,62.96
2019-02-24T00:13:05.042Z,63.50
2019-02-24T00:15:33.597Z,63.39
2019-02-24T00:18:02.122Z,63.15
2019-02-24T00:20:30.633Z,63.18
2019-02-24T00:22:59.157Z,63.65
2019-02-24T00:25:27.677Z,63.09
2019-02-24T00:27:56.242Z,63.01
2019-02-24T00:30:24.766Z,63.08
2019-02-24T00:32:53.282Z,62.89
2019-02-24T00:35:21.802Z,62.87
2019-02-24T00:37:50.325Z,63.29
2019-02-24T00:40:18.893Z,63.43
2019-02-24T00:42:47.414Z,62.58
2019-02-24T00:45:15.931Z,62.89
2019-02-24T00:47:44.461Z,63.26
2019-02-24T00:50:12.965Z,63.84
2019-02-24T00:52:41.545Z,64.86
2019-02-24T00:55:10.058Z,65.46
2019-02-24T00:57:38.579Z,67.18
2019-02-24T01:00:10.104Z,67.08
2019-02-24T01:02:38.624Z,66.57
2019-02-24T01:05:08.580Z,67.25
2019-02-24T01:07:37.095Z,66.83
2019-02-24T01:10:08.315Z,67.24
2019-02-24T01:12:36.848Z,66.30
2019-02-24T01:15:08.271Z,67.07
2019-02-24T01:17:36.841Z,65.77
2019-02-24T01:20:07.764Z,66.34
2019-02-24T01:22:36.290Z,68.27
2019-02-24T01:25:04.835Z,69.05
2019-02-24T01:27:33.362Z,69.63
2019-02-24T01:30:02.025Z,69.94
2019-02-24T01:32:30.542Z,70.96
2019-02-24T01:34:59.058Z,69.94
2019-02-24T01:37:27.588Z,70.47
2019-02-24T01:39:56.100Z,70.77
2019-02-24T01:42:24.672Z,71.19
2019-02-24T01:44:53.223Z,71.20
2019-02-24T01:47:21.734Z,71.35
2019-02-24T01:49:50.258Z,71.38
2019-02-24T01:52:18.771Z,71.59
2019-02-24T01:54:47.335Z,72.25
2019-02-24T01:57:15.856Z,71.52
2019-02-24T01:59:44.374Z,71.52
2019-02-24T02:02:12.900Z,72.08
2019-02-24T02:04:41.414Z,72.73
2019-02-24T02:07:09.982Z,72.25
2019-02-24T02:09:38.499Z,72.05
2019-02-24T02:12:07.020Z,71.64
2019-02-24T02:14:35.541Z,72.19
2019-02-24T02:17:04.057Z,71.71
2019-02-24T02:19:32.659Z,71.85
2019-02-24T02:22:01.121Z,72.07
2019-02-24T02:24:29.636Z,72.86
2019-02-24T02:26:58.165Z,73.41
2019-02-24T02:29:26.692Z,73.52
2019-02-24T02:31:55.250Z,73.05
2019-02-24T02:34:23.761Z,72.75
2019-02-24T02:36:52.275Z,72.94
2019-02-24T02:39:20.792Z,72.39
2019-02-24T02:41:49.306Z,72.88
2019-02-24T02:44:17.877Z,73.44
2019-02-24T02:46:46.399Z,73.14
2019-02-24T02:49:14.915Z,73.29
2019-02-24T02:51:43.428Z,72.67
2019-02-24T02:54:11.944Z,72.16
2019-02-24T02:56:40.510Z,72.54
2019-02-24T02:59:09.020Z,72.33
2019-02-24T03:01:37.529Z,71.64
2019-02-24T03:04:06.058Z,72.50
2019-02-24T03:06:45.203Z,71.95
2019-02-24T03:09:13.715Z,71.36
2019-02-24T03:11:42.228Z,72.26
2019-02-24T03:14:10.790Z,71.73
2019-02-24T03:16:39.303Z,71.49
2019-02-24T03:19:07.822Z,72.35
2019-02-24T03:21:36.341Z,72.30
2019-02-24T03:24:04.861Z,71.96
2019-02-24T03:26:33.435Z,71.72
2019-02-24T03:29:04.392Z,71.93
2019-02-24T03:31:32.185Z,71.25
2019-02-24T03:34:00.717Z,71.75
2019-02-24T03:36:29.227Z,71.62
2019-02-24T03:38:57.791Z,71.61
2019-02-24T03:41:26.304Z,71.38
2019-02-24T03:43:54.821Z,72.15
2019-02-24T03:46:23.338Z,71.34
2019-02-24T03:48:51.845Z,70.54
2019-02-24T03:51:20.433Z,70.92
2019-02-24T03:53:48.942Z,71.12
2019-02-24T03:56:17.446Z,71.04
2019-02-24T03:58:45.968Z,70.75
2019-02-24T04:01:14.484Z,70.99
2019-02-24T04:03:43.032Z,71.20
2019-02-24T04:06:11.547Z,71.43
2019-02-24T04:08:40.056Z,71.94
2019-02-24T04:11:08.600Z,71.95
2019-02-24T04:13:37.104Z,72.48
2019-02-24T04:16:05.661Z,71.78
2019-02-24T04:18:34.179Z,72.15
2019-02-24T04:21:02.701Z,72.28
2019-02-24T04:23:31.230Z,71.89
2019-02-24T04:25:59.757Z,70.66
2019-02-24T04:28:28.289Z,70.32
2019-02-24T04:30:56.799Z,70.78
2019-02-24T04:33:25.324Z,70.67
2019-02-24T04:35:53.847Z,72.32
2019-02-24T04:38:22.364Z,72.25
2019-02-24T04:40:50.943Z,72.94
2019-02-24T04:43:19.467Z,73.02
2019-02-24T04:45:48.004Z,72.70
2019-02-24T04:48:16.527Z,71.40
2019-02-24T04:50:45.049Z,71.00
2019-02-24T04:53:13.609Z,70.85
2019-02-24T04:55:42.139Z,71.27
2019-02-24T04:58:10.649Z,70.73
2019-02-24T05:00:39.189Z,70.22
2019-02-24T05:03:07.702Z,69.58
2019-02-24T05:05:36.259Z,69.52
2019-02-24T05:08:04.782Z,69.58
2019-02-24T05:10:33.299Z,69.50
2019-02-24T05:13:01.833Z,70.73
2019-02-24T05:15:30.352Z,70.96
2019-02-24T05:17:58.935Z,70.49
2019-02-24T05:20:27.451Z,69.83
2019-02-24T05:22:55.973Z,68.71
2019-02-24T05:25:24.500Z,68.92
2019-02-24T05:27:53.025Z,69.23
2019-02-24T05:30:21.548Z,69.45
2019-02-24T05:32:50.114Z,69.35
2019-02-24T05:35:18.596Z,69.30
2019-02-24T05:37:47.114Z,68.64
2019-02-24T05:40:15.674Z,70.19
2019-02-24T05:42:44.190Z,70.49
2019-02-24T05:45:12.710Z,70.87
2019-02-24T05:47:41.288Z,70.89
2019-02-24T05:50:09.802Z,71.08
2019-02-24T05:52:38.333Z,70.50
2019-02-24T05:55:07.472Z,70.99
2019-02-24T05:57:35.997Z,70.41
2019-02-24T06:00:05.078Z,69.96
2019-02-24T06:02:33.593Z,70.40
2019-02-24T06:05:02.108Z,70.64
2019-02-24T06:07:30.671Z,69.48
2019-02-24T06:09:59.186Z,70.20
2019-02-24T06:12:27.696Z,69.96
2019-02-24T06:14:56.224Z,69.44
2019-02-24T06:17:24.728Z,69.12
2019-02-24T06:19:53.286Z,69.29
2019-02-24T06:22:21.792Z,68.95
2019-02-24T06:24:50.305Z,68.53
2019-02-24T06:27:18.821Z,69.27
2019-02-24T06:29:47.338Z,68.54
2019-02-24T06:32:15.896Z,67.48
2019-02-24T06:34:44.412Z,68.31
2019-02-24T06:37:12.926Z,68.19
2019-02-24T06:39:41.445Z,68.69
2019-02-24T06:42:09.958Z,68.23
2019-02-24T06:44:38.515Z,67.66
2019-02-24T06:47:07.022Z,67.55
2019-02-24T06:49:35.535Z,66.81
2019-02-24T06:52:04.049Z,66.48
2019-02-24T06:54:32.560Z,66.68
2019-02-24T06:57:01.130Z,66.09
2019-02-24T06:59:29.635Z,66.18
2019-02-24T07:01:58.145Z,66.54
2019-02-24T07:04:26.668Z,68.60
2019-02-24T07:06:55.174Z,67.03
2019-02-24T07:09:23.737Z,67.64
2019-02-24T07:11:52.249Z,67.72
2019-02-24T07:14:20.759Z,67.84
2019-02-24T07:16:49.274Z,66.89
2019-02-24T07:19:17.785Z,66.46
2019-02-24T07:21:46.333Z,66.39
2019-02-24T07:24:14.867Z,65.18
2019-02-24T07:26:43.367Z,64.00
2019-02-24T07:29:12.276Z,63.06
2019-02-24T07:31:40.799Z,62.72
2019-02-24T07:34:11.649Z,62.05
2019-02-24T07:36:40.162Z,62.96
2019-02-24T07:39:08.678Z,61.80
2019-02-24T07:41:37.206Z,61.29
2019-02-24T07:44:05.724Z,58.84
2019-02-24T07:46:34.298Z,58.84
2019-02-24T07:49:02.821Z,58.83
2019-02-24T07:51:31.332Z,58.70
2019-02-24T07:53:59.839Z,58.70
2019-02-24T07:56:28.376Z,58.11
2019-02-24T07:58:56.922Z,58.74
2019-02-24T08:01:25.425Z,58.92
2019-02-24T08:03:54.176Z,60.65
2019-02-24T08:06:22.693Z,60.65
2019-02-24T08:08:51.200Z,59.74
2019-02-24T08:11:19.752Z,59.73
2019-02-24T08:13:48.254Z,58.96
2019-02-24T08:16:16.767Z,58.96
2019-02-24T08:18:49.485Z,59.14
2019-02-24T08:21:15.533Z,59.91
2019-02-24T08:23:44.086Z,58.63
2019-02-24T08:26:12.598Z,57.71
2019-02-24T08:28:41.117Z,57.71
2019-02-24T08:31:09.674Z,57.14
2019-02-24T08:33:38.640Z,57.14
2019-02-24T08:36:07.212Z,56.98
2019-02-24T08:38:37.297Z,58.79
2019-02-24T08:41:06.176Z,58.79
2019-02-24T08:43:34.776Z,59.08
2019-02-24T08:46:03.288Z,59.08
2019-02-24T08:48:31.853Z,59.35
2019-02-24T08:51:00.359Z,57.92
2019-02-24T08:53:28.864Z,59.36
2019-02-24T08:55:57.382Z,59.87
2019-02-24T08:58:25.889Z,59.55
2019-02-24T09:00:54.447Z,60.94
2019-02-24T09:03:22.955Z,60.94
2019-02-24T09:05:51.470Z,60.40
2019-02-24T09:08:19.992Z,61.51
2019-02-24T09:10:48.505Z,61.45
2019-02-24T09:13:17.062Z,61.57
2019-02-24T09:15:45.572Z,62.28
2019-02-24T09:18:14.085Z,62.17
2019-02-24T09:20:42.620Z,62.39
2019-02-24T09:23:11.135Z,62.44
2019-02-24T09:25:39.686Z,61.65
2019-02-24T09:28:08.203Z,61.58
2019-02-24T09:30:36.736Z,60.42
2019-02-24T09:33:05.329Z,60.45
2019-02-24T09:35:33.855Z,60.53
2019-02-24T09:38:02.412Z,61.83
2019-02-24T09:40:30.926Z,60.96
2019-02-24T09:42:59.431Z,60.48
2019-02-24T09:45:27.952Z,60.76
2019-02-24T09:47:56.489Z,61.44
2019-02-24T09:50:25.031Z,61.18
2019-02-24T09:52:53.546Z,60.30
2019-02-24T09:55:22.063Z,60.49
2019-02-24T09:57:50.599Z,61.30
2019-02-24T10:00:19.107Z,60.37
2019-02-24T10:02:47.678Z,59.38
2019-02-24T10:05:16.182Z,59.57
2019-02-24T10:07:44.690Z,59.57
2019-02-24T10:10:13.503Z,58.60
2019-02-24T10:12:42.012Z,57.07
2019-02-24T10:15:13.090Z,54.19
2019-02-24T10:17:41.582Z,54.19
2019-02-24T10:20:11.195Z,54.29
2019-02-24T10:22:39.715Z,53.66
2019-02-24T10:25:09.167Z,49.93
2019-02-24T10:27:37.721Z,51.60
2019-02-24T10:30:11.535Z,51.85
2019-02-24T10:32:40.059Z,48.58
2019-02-24T10:35:08.564Z,49.28
2019-02-24T10:37:37.077Z,46.73
2019-02-24T10:40:08.881Z,46.73
2019-02-24T10:42:37.466Z,46.40
2019-02-24T10:45:09.066Z,46.73
2019-02-24T10:47:37.622Z,45.62
2019-02-24T10:50:09.495Z,44.37
2019-02-24T10:52:38.090Z,45.08
2019-02-24T10:55:06.699Z,44.86
2019-02-24T10:57:35.204Z,41.78
2019-02-24T11:00:05.917Z,42.39
2019-02-24T11:02:34.422Z,41.75
2019-02-24T11:05:02.970Z,41.82
2019-02-24T11:07:31.478Z,42.09
2019-02-24T11:09:59.985Z,41.80
2019-02-24T11:12:28.505Z,43.01
2019-02-24T11:14:57.008Z,43.10
2019-02-24T11:17:25.611Z,44.04
2019-02-24T11:19:54.091Z,43.59
2019-02-24T11:22:22.592Z,43.96
2019-02-24T11:24:51.145Z,44.16
2019-02-24T11:27:19.655Z,42.94
2019-02-24T11:29:48.156Z,44.19
2019-02-24T11:32:16.676Z,43.61
2019-02-24T11:34:45.191Z,45.12
2019-02-24T11:37:13.740Z,45.73
2019-02-24T11:39:42.248Z,46.16
2019-02-24T11:42:10.751Z,46.46
2019-02-24T11:44:39.268Z,45.96
2019-02-24T11:47:07.771Z,45.50
2019-02-24T11:49:36.336Z,45.85
2019-02-24T11:52:04.853Z,45.85
2019-02-24T11:54:33.361Z,46.45
2019-02-24T11:57:01.892Z,46.45
2019-02-24T11:59:30.400Z,46.91
2019-02-24T12:01:58.906Z,46.74
2019-02-24T12:04:27.466Z,47.87
2019-02-24T12:06:55.958Z,47.21
2019-02-24T12:09:24.458Z,47.20
2019-02-24T12:11:53.009Z,46.97
2019-02-24T12:14:21.592Z,46.97
2019-02-24T12:16:50.102Z,47.77
2019-02-24T12:19:18.620Z,47.36
2019-02-24T12:21:47.131Z,47.76
2019-02-24T12:24:15.685Z,46.93
2019-02-24T12:26:44.194Z,47.96
2019-02-24T12:29:12.699Z,47.21
2019-02-24T12:31:41.219Z,47.21
2019-02-24T12:34:09.725Z,47.07
2019-02-24T12:36:38.282Z,47.07
2019-02-24T12:39:06.782Z,47.33
2019-02-24T12:41:35.302Z,47.27
2019-02-24T12:44:03.811Z,47.88
2019-02-24T12:46:32.312Z,47.07
2019-02-24T12:49:00.882Z,47.07
2019-02-24T12:51:29.363Z,48.54
2019-02-24T12:53:57.875Z,49.33
2019-02-24T12:56:26.396Z,49.33
2019-02-24T12:58:54.928Z,47.83
2019-02-24T13:01:23.484Z,48.31
2019-02-24T13:03:51.994Z,48.58
2019-02-24T13:06:20.492Z,47.15
2019-02-24T13:08:49.011Z,47.15
2019-02-24T13:11:17.519Z,47.61
2019-02-24T13:13:46.072Z,47.71
2019-02-24T13:16:14.589Z,47.71
2019-02-24T13:18:43.094Z,48.59
2019-02-24T13:21:11.615Z,48.79
2019-02-24T13:23:40.124Z,49.10
2019-02-24T13:26:08.687Z,49.33
2019-02-24T13:28:37.191Z,50.00
2019-02-24T13:31:05.702Z,50.73
2019-02-24T13:33:34.226Z,49.36
2019-02-24T13:36:02.750Z,49.42
2019-02-24T13:38:31.317Z,49.59
2019-02-24T13:41:01.415Z,50.04
2019-02-24T13:43:29.926Z,51.42
2019-02-24T13:45:58.449Z,50.51
2019-02-24T13:48:26.967Z,50.63
2019-02-24T13:50:55.523Z,50.74
2019-02-24T13:53:24.039Z,50.58
2019-02-24T13:55:52.547Z,50.69
2019-02-24T13:58:21.086Z,50.13
2019-02-24T14:00:49.587Z,51.14
2019-02-24T14:03:18.137Z,50.74
2019-02-24T14:05:46.654Z,48.48
2019-02-24T14:08:15.162Z,49.84
2019-02-24T14:10:43.692Z,48.35
2019-02-24T14:13:12.192Z,48.92
2019-02-24T14:15:40.753Z,48.92
2019-02-24T14:18:09.254Z,50.32
2019-02-24T14:20:37.775Z,48.69
2019-02-24T14:23:06.300Z,49.33
2019-02-24T14:25:34.814Z,49.46
2019-02-24T14:28:03.381Z,48.02
2019-02-24T14:30:31.884Z,48.02
2019-02-24T14:33:00.391Z,49.39
2019-02-24T14:35:28.952Z,48.60
2019-02-24T14:37:57.461Z,49.64
2019-02-24T14:40:26.044Z,51.13
2019-02-24T14:42:54.582Z,49.88
2019-02-24T14:45:24.760Z,49.30
2019-02-24T14:47:53.345Z,50.10
2019-02-24T14:50:22.426Z,50.33
2019-02-24T14:52:50.983Z,50.71
2019-02-24T14:55:19.520Z,51.08
2019-02-24T14:57:48.040Z,50.64
2019-02-24T15:00:18.821Z,50.07
2019-02-24T15:02:47.351Z,50.89
2019-02-24T15:05:16.810Z,51.14
2019-02-24T15:07:45.607Z,51.14
2019-02-24T15:10:19.916Z,51.67
2019-02-24T15:12:48.432Z,51.67
2019-02-24T15:15:22.351Z,50.45
2019-02-24T15:17:50.863Z,50.91
2019-02-24T15:20:20.470Z,50.91
2019-02-24T15:22:49.001Z,51.47
2019-02-24T15:25:19.076Z,52.03
2019-02-24T15:27:47.651Z,51.84
2019-02-24T15:30:28.024Z,52.21
2019-02-24T15:32:56.614Z,52.69
2019-02-24T15:35:25.222Z,52.53
2019-02-24T15:37:53.720Z,52.82
2019-02-24T15:40:22.233Z,52.74
2019-02-24T15:42:50.751Z,53.38
2019-02-24T15:45:19.312Z,53.28
2019-02-24T15:47:47.837Z,52.89
2019-02-24T15:50:16.361Z,53.14
2019-02-24T15:52:44.896Z,53.19
2019-02-24T15:55:15.566Z,53.69
2019-02-24T15:57:44.082Z,54.17
2019-02-24T16:00:19.773Z,53.03
2019-02-24T16:02:48.291Z,53.92
2019-02-24T16:05:16.859Z,53.56
2019-02-24T16:07:45.369Z,53.29
2019-02-24T16:10:16.553Z,53.19
2019-02-24T16:12:45.110Z,53.82
2019-02-24T16:15:15.523Z,52.77
2019-02-24T16:17:44.040Z,52.27
2019-02-24T16:20:17.775Z,52.85
2019-02-24T16:22:46.288Z,53.78
2019-02-24T16:25:14.874Z,53.25
2019-02-24T16:27:43.397Z,54.03
2019-02-24T16:30:16.270Z,54.13
2019-02-24T16:32:44.834Z,53.92
2019-02-24T16:35:15.063Z,53.25
2019-02-24T16:37:43.577Z,53.75
2019-02-24T16:40:23.490Z,54.43
2019-02-24T16:42:53.558Z,54.22
2019-02-24T16:45:22.135Z,53.47
2019-02-24T16:47:50.655Z,53.87
2019-02-24T16:50:21.236Z,53.35
2019-02-24T16:52:49.770Z,54.28
2019-02-24T16:55:18.599Z,53.71
2019-02-24T16:57:48.102Z,54.14
2019-02-24T17:00:23.263Z,53.24
2019-02-24T17:02:51.780Z,53.43
2019-02-24T17:05:20.336Z,53.74
2019-02-24T17:07:49.377Z,53.61
2019-02-24T17:10:23.907Z,53.75
2019-02-24T17:12:52.434Z,53.92
2019-02-24T17:15:20.942Z,54.16
2019-02-24T17:17:49.498Z,54.67
2019-02-24T17:20:22.623Z,54.72
2019-02-24T17:22:51.130Z,54.97
2019-02-24T17:25:19.696Z,54.95
2019-02-24T17:27:48.200Z,55.10
2019-02-24T17:30:16.806Z,55.71
2019-02-24T17:32:45.332Z,55.83
2019-02-24T17:35:13.840Z,55.20
2019-02-24T17:37:42.410Z,55.31
2019-02-24T17:40:16.044Z,55.77
2019-02-24T17:42:44.560Z,55.83
2019-02-24T17:45:14.005Z,55.92
2019-02-24T17:47:42.526Z,55.43
2019-02-24T17:50:12.630Z,56.16
2019-02-24T17:52:41.273Z,55.39
2019-02-24T17:55:14.484Z,56.16
2019-02-24T17:57:43.023Z,55.56
2019-02-24T18:00:14.427Z,55.53
2019-02-24T18:02:42.939Z,55.00
2019-02-24T18:05:12.958Z,55.67
2019-02-24T18:07:41.471Z,56.02
2019-02-24T18:10:10.017Z,55.87
2019-02-24T18:12:38.536Z,55.14
2019-02-24T18:15:10.048Z,54.76
2019-02-24T18:17:38.576Z,54.92
2019-02-24T18:20:09.776Z,55.12
2019-02-24T18:22:38.405Z,55.25
2019-02-24T18:25:10.711Z,55.41
2019-02-24T18:27:39.235Z,55.44
2019-02-24T18:30:10.882Z,56.02
2019-02-24T18:32:39.407Z,56.53
2019-02-24T18:35:07.955Z,57.79
2019-02-24T18:37:36.476Z,57.29
2019-02-24T18:40:07.679Z,57.33
2019-02-24T18:42:36.221Z,57.84
2019-02-24T18:45:05.643Z,57.33
2019-02-24T18:47:34.232Z,57.85
2019-02-24T18:50:03.142Z,58.12
2019-02-24T18:52:31.668Z,58.12
2019-02-24T18:55:00.294Z,57.74
2019-02-24T18:57:28.804Z,58.05
2019-02-24T18:59:58.887Z,58.21
2019-02-24T19:02:27.415Z,58.75
2019-02-24T19:04:55.932Z,58.77
2019-02-24T19:07:24.457Z,58.98
2019-02-24T19:09:52.980Z,59.20
2019-02-24T19:12:21.564Z,59.35
2019-02-24T19:14:50.102Z,59.59
2019-02-24T19:17:18.602Z,59.73
2019-02-24T19:19:47.173Z,59.79
2019-02-24T19:22:15.700Z,59.77
2019-02-24T19:24:44.210Z,59.82
2019-02-24T19:27:12.780Z,60.00
2019-02-24T19:29:41.298Z,59.85
2019-02-24T19:32:09.817Z,60.28
2019-02-24T19:34:38.778Z,60.44
2019-02-24T19:37:07.299Z,60.46
2019-02-24T19:39:35.886Z,59.24
2019-02-24T19:42:04.406Z,59.42
2019-02-24T19:44:32.926Z,59.38
2019-02-24T19:47:01.522Z,59.46
2019-02-24T19:49:30.072Z,59.58
2019-02-24T19:51:58.652Z,59.52
2019-02-24T19:54:27.172Z,59.53
2019-02-24T19:56:55.681Z,59.47
2019-02-24T19:59:24.218Z,61.18
2019-02-24T20:01:52.738Z,60.98
2019-02-24T20:04:21.312Z,60.69
2019-02-24T20:06:49.836Z,60.81
2019-02-24T20:09:18.373Z,61.19
2019-02-24T20:11:46.910Z,60.92
2019-02-24T20:14:15.421Z,61.66
2019-02-24T20:16:44.029Z,62.05
2019-02-24T20:19:12.542Z,62.51
2019-02-24T20:21:41.099Z,62.48
2019-02-24T20:24:09.725Z,62.74
2019-02-24T20:26:38.248Z,62.52
2019-02-24T20:29:06.817Z,62.59
2019-02-24T20:31:35.332Z,62.44
2019-02-24T20:34:03.847Z,63.02
2019-02-24T20:36:32.365Z,62.62
2019-02-24T20:39:00.876Z,62.82
2019-02-24T20:41:29.467Z,62.88
2019-02-24T20:43:57.989Z,62.92
2019-02-24T20:46:26.512Z,63.00
2019-02-24T20:48:55.087Z,63.51
2019-02-24T20:51:23.604Z,64.34
2019-02-24T20:53:52.138Z,63.78
2019-02-24T20:56:21.087Z,63.83
2019-02-24T20:58:49.613Z,63.30
2019-02-24T21:01:18.185Z,63.29
2019-02-24T21:03:46.698Z,63.90
2019-02-24T21:06:15.218Z,63.94
2019-02-24T21:08:43.794Z,64.19
2019-02-24T21:11:12.312Z,64.65
2019-02-24T21:13:40.822Z,63.88
2019-02-24T21:16:09.414Z,64.08
2019-02-24T21:18:37.940Z,64.48
2019-02-24T21:21:06.458Z,63.99
2019-02-24T21:23:35.019Z,62.97
2019-02-24T21:26:03.528Z,62.25
2019-02-24T21:28:32.038Z,62.06
2019-02-24T21:31:00.613Z,61.18
2019-02-24T21:33:29.127Z,60.88
2019-02-24T21:35:57.638Z,61.06
2019-02-24T21:38:26.168Z,60.57
2019-02-24T21:40:54.670Z,60.49
2019-02-24T21:43:23.242Z,59.78
2019-02-24T21:45:51.756Z,60.85
2019-02-24T21:48:20.266Z,60.45
2019-02-24T21:50:48.779Z,60.85
2019-02-24T21:53:17.301Z,59.87
2019-02-24T21:55:45.866Z,60.29
2019-02-24T21:58:14.378Z,60.18
2019-02-24T22:00:42.889Z,60.35
2019-02-24T22:03:11.406Z,61.35
2019-02-24T22:05:39.925Z,61.04
2019-02-24T22:08:08.490Z,61.51
2019-02-24T22:10:37.003Z,61.76
2019-02-24T22:13:05.520Z,61.69
2019-02-24T22:15:34.037Z,61.79
2019-02-24T22:18:02.553Z,62.03
2019-02-24T22:20:31.113Z,62.48
2019-02-24T22:22:59.628Z,63.33
2019-02-24T22:25:28.137Z,63.46
2019-02-24T22:27:56.657Z,63.35
2019-02-24T22:30:25.169Z,64.00
2019-02-24T22:32:53.724Z,64.14
2019-02-24T22:35:22.235Z,64.17
2019-02-24T22:37:50.750Z,64.87
2019-02-24T22:40:19.268Z,64.57
2019-02-24T22:42:47.784Z,64.68
2019-02-24T22:45:20.073Z,64.84
2019-02-24T22:47:48.585Z,64.99
2019-02-24T22:50:17.099Z,64.63
2019-02-24T22:52:46.186Z,65.07
2019-02-24T22:55:18.887Z,65.23
2019-02-24T22:57:47.395Z,65.66
2019-02-24T23:00:53.664Z,65.96
2019-02-24T23:03:24.323Z,66.11
2019-02-24T23:05:52.838Z,66.39
2019-02-24T23:08:21.344Z,66.89
2019-02-24T23:10:49.867Z,67.17
2019-02-24T23:13:18.423Z,67.98
2019-02-24T23:15:47.017Z,67.02
2019-02-24T23:18:15.536Z,66.93
2019-02-24T23:20:44.048Z,67.34
2019-02-24T23:23:12.563Z,67.25
2019-02-24T23:25:41.070Z,67.26
2019-02-24T23:28:09.640Z,67.50
2019-02-24T23:30:38.144Z,67.51
2019-02-24T23:33:06.656Z,68.15
2019-02-24T23:35:35.176Z,68.21
2019-02-24T23:38:03.684Z,68.79
2019-02-24T23:40:32.235Z,69.07
2019-02-24T23:43:00.748Z,68.79
2019-02-24T23:45:29.257Z,68.96
2019-02-24T23:47:57.779Z,69.06
2019-02-24T23:50:26.290Z,69.38
2019-02-24T23:52:54.841Z,69.76
2019-02-24T23:55:23.347Z,69.97
2019-02-24T23:57:51.861Z,70.40
